sensor_id;sensor_type;location;lat;lon;timestamp;pressure;altitude;pressure_sealevel;temperature;humidity
38530;BME280;24301;54.332;48.386;2023-05-19T00:02:08;99263.13;;;14.13;40.66
38530;BME280;24301;54.332;48.386;2023-05-19T00:04:34;99259.72;;;14.10;41.38
38530;BME280;24301;54.332;48.386;2023-05-19T00:07:02;99289.75;;;14.05;41.94
38530;BME280;24301;54.332;48.386;2023-05-19T00:09:28;99290.84;;;13.97;44.45
38530;BME280;24301;54.332;48.386;2023-05-19T00:11:54;99258.44;;;13.88;45.20
38530;BME280;24301;54.332;48.386;2023-05-19T00:14:21;99267.34;;;13.84;46.40
38530;BME280;24301;54.332;48.386;2023-05-19T00:16:47;99265.78;;;13.75;47.12
38530;BME280;24301;54.332;48.386;2023-05-19T00:19:13;99264.09;;;13.73;47.49
38530;BME280;24301;54.332;48.386;2023-05-19T00:21:41;99265.09;;;13.67;47.65
38530;BME280;24301;54.332;48.386;2023-05-19T00:24:07;99280.09;;;13.65;47.84
38530;BME280;24301;54.332;48.386;2023-05-19T00:26:33;99266.13;;;13.60;48.47
38530;BME280;24301;54.332;48.386;2023-05-19T00:29:04;99267.91;;;13.59;49.19
38530;BME280;24301;54.332;48.386;2023-05-19T00:31:30;99259.16;;;13.57;49.39
38530;BME280;24301;54.332;48.386;2023-05-19T00:33:56;99260.03;;;13.56;49.93
38530;BME280;24301;54.332;48.386;2023-05-19T00:36:23;99278.59;;;13.55;50.18
38530;BME280;24301;54.332;48.386;2023-05-19T00:38:49;99268.03;;;13.55;51.01
38530;BME280;24301;54.332;48.386;2023-05-19T00:41:16;99265.41;;;13.53;50.72
38530;BME280;24301;54.332;48.386;2023-05-19T00:43:42;99260.16;;;13.52;50.95
38530;BME280;24301;54.332;48.386;2023-05-19T00:46:08;99264.44;;;13.57;50.98
38530;BME280;24301;54.332;48.386;2023-05-19T00:48:35;99258.22;;;13.60;51.09
38530;BME280;24301;54.332;48.386;2023-05-19T00:51:02;99262.63;;;13.59;50.19
38530;BME280;24301;54.332;48.386;2023-05-19T00:53:32;99260.78;;;13.63;50.73
38530;BME280;24301;54.332;48.386;2023-05-19T00:55:59;99263.44;;;13.61;51.67
38530;BME280;24301;54.332;48.386;2023-05-19T00:58:26;99266.13;;;13.60;51.96
38530;BME280;24301;54.332;48.386;2023-05-19T01:00:57;99268.81;;;13.58;52.24
38530;BME280;24301;54.332;48.386;2023-05-19T01:03:29;99277.59;;;13.59;53.55
38530;BME280;24301;54.332;48.386;2023-05-19T01:05:56;99269.75;;;13.56;54.03
38530;BME280;24301;54.332;48.386;2023-05-19T01:08:27;99260.09;;;13.55;53.85
38530;BME280;24301;54.332;48.386;2023-05-19T01:10:53;99252.06;;;13.59;53.36
38530;BME280;24301;54.332;48.386;2023-05-19T01:13:20;99254.38;;;13.73;53.69
38530;BME280;24301;54.332;48.386;2023-05-19T01:16:06;99269.53;;;14.04;54.01
38530;BME280;24301;54.332;48.386;2023-05-19T01:18:43;99273.50;;;14.22;55.41
38530;BME280;24301;54.332;48.386;2023-05-19T01:32:17;99257.66;;;14.56;51.46
38530;BME280;24301;54.332;48.386;2023-05-19T01:34:45;99259.75;;;14.43;52.70
38530;BME280;24301;54.332;48.386;2023-05-19T01:37:14;99257.63;;;14.57;51.76
38530;BME280;24301;54.332;48.386;2023-05-19T01:39:42;99262.03;;;14.91;50.94
38530;BME280;24301;54.332;48.386;2023-05-19T01:42:09;99266.09;;;15.35;49.33
38530;BME280;24301;54.332;48.386;2023-05-19T01:44:36;99271.94;;;15.75;47.73
38530;BME280;24301;54.332;48.386;2023-05-19T01:47:03;99254.38;;;16.01;42.72
38530;BME280;24301;54.332;48.386;2023-05-19T01:49:30;99257.06;;;16.26;42.18
38530;BME280;24301;54.332;48.386;2023-05-19T01:51:55;99260.31;;;16.61;40.93
38530;BME280;24301;54.332;48.386;2023-05-19T01:54:22;99249.09;;;16.78;39.59
38530;BME280;24301;54.332;48.386;2023-05-19T01:57:02;99259.09;;;16.95;39.12
38530;BME280;24301;54.332;48.386;2023-05-19T01:59:41;99265.63;;;17.12;37.90
38530;BME280;24301;54.332;48.386;2023-05-19T02:03:08;99255.00;;;17.36;38.66
38530;BME280;24301;54.332;48.386;2023-05-19T02:05:17;99265.88;;;17.98;38.22
38530;BME280;24301;54.332;48.386;2023-05-19T02:08:14;99264.66;;;18.07;37.20
38530;BME280;24301;54.332;48.386;2023-05-19T02:10:50;99265.50;;;18.30;37.42
38530;BME280;24301;54.332;48.386;2023-05-19T02:13:19;99263.47;;;18.57;37.10
38530;BME280;24301;54.332;48.386;2023-05-19T02:15:47;99272.59;;;19.33;36.55
38530;BME280;24301;54.332;48.386;2023-05-19T02:18:15;99261.66;;;19.97;34.55
38530;BME280;24301;54.332;48.386;2023-05-19T02:20:43;99266.31;;;20.28;33.50
38530;BME280;24301;54.332;48.386;2023-05-19T02:23:09;99262.41;;;20.88;32.53
38530;BME280;24301;54.332;48.386;2023-05-19T02:25:35;99272.09;;;21.57;31.86
38530;BME280;24301;54.332;48.386;2023-05-19T02:28:01;99281.97;;;21.88;30.72
38530;BME280;24301;54.332;48.386;2023-05-19T02:30:29;99271.44;;;22.01;30.21
38530;BME280;24301;54.332;48.386;2023-05-19T02:32:59;99279.00;;;22.25;29.59
38530;BME280;24301;54.332;48.386;2023-05-19T02:35:25;99275.84;;;22.49;29.16
38530;BME280;24301;54.332;48.386;2023-05-19T02:37:52;99282.22;;;22.62;28.47
38530;BME280;24301;54.332;48.386;2023-05-19T02:40:19;99283.16;;;22.61;27.93
38530;BME280;24301;54.332;48.386;2023-05-19T02:42:46;99287.03;;;22.86;27.70
38530;BME280;24301;54.332;48.386;2023-05-19T02:45:13;99278.41;;;23.26;27.06
38530;BME280;24301;54.332;48.386;2023-05-19T02:47:40;99287.34;;;24.10;26.45
38530;BME280;24301;54.332;48.386;2023-05-19T02:50:07;99297.34;;;24.49;25.80
38530;BME280;24301;54.332;48.386;2023-05-19T02:52:33;99296.19;;;24.53;25.17
38530;BME280;24301;54.332;48.386;2023-05-19T02:54:59;99297.50;;;24.20;25.39
38530;BME280;24301;54.332;48.386;2023-05-19T02:57:28;99290.03;;;24.10;25.45
38530;BME280;24301;54.332;48.386;2023-05-19T02:59:54;99283.56;;;24.28;24.99
38530;BME280;24301;54.332;48.386;2023-05-19T03:02:20;99305.97;;;24.67;25.18
38530;BME280;24301;54.332;48.386;2023-05-19T03:04:46;99297.47;;;25.14;24.70
38530;BME280;24301;54.332;48.386;2023-05-19T03:07:12;99291.38;;;25.62;23.73
38530;BME280;24301;54.332;48.386;2023-05-19T03:09:38;99304.44;;;25.55;23.77
38530;BME280;24301;54.332;48.386;2023-05-19T03:12:05;99298.81;;;25.71;23.57
38530;BME280;24301;54.332;48.386;2023-05-19T03:14:33;99297.00;;;25.46;23.41
38530;BME280;24301;54.332;48.386;2023-05-19T03:17:02;99289.28;;;25.54;23.16
38530;BME280;24301;54.332;48.386;2023-05-19T03:19:28;99300.19;;;25.64;23.05
38530;BME280;24301;54.332;48.386;2023-05-19T03:21:57;99289.41;;;26.38;22.37
38530;BME280;24301;54.332;48.386;2023-05-19T03:24:23;99291.94;;;27.00;21.83
38530;BME280;24301;54.332;48.386;2023-05-19T03:26:49;99296.63;;;27.09;21.63
38530;BME280;24301;54.332;48.386;2023-05-19T03:29:16;99304.34;;;27.25;21.52
38530;BME280;24301;54.332;48.386;2023-05-19T03:31:42;99296.13;;;27.27;21.23
38530;BME280;24301;54.332;48.386;2023-05-19T03:34:08;99298.84;;;27.61;21.36
38530;BME280;24301;54.332;48.386;2023-05-19T03:36:34;99297.94;;;27.83;20.76
38530;BME280;24301;54.332;48.386;2023-05-19T03:39:07;99288.59;;;27.99;20.57
38530;BME280;24301;54.332;48.386;2023-05-19T03:41:34;99309.66;;;28.61;20.29
38530;BME280;24301;54.332;48.386;2023-05-19T03:44:00;99317.94;;;28.48;19.64
38530;BME280;24301;54.332;48.386;2023-05-19T03:46:26;99298.59;;;27.53;20.18
38530;BME280;24301;54.332;48.386;2023-05-19T03:48:52;99305.69;;;27.77;20.21
38530;BME280;24301;54.332;48.386;2023-05-19T03:51:35;99309.72;;;28.17;19.76
38530;BME280;24301;54.332;48.386;2023-05-19T03:54:16;99319.66;;;28.70;19.42
38530;BME280;24301;54.332;48.386;2023-05-19T03:56:43;99325.06;;;29.34;19.15
38530;BME280;24301;54.332;48.386;2023-05-19T03:59:09;99324.78;;;29.06;18.67
38530;BME280;24301;54.332;48.386;2023-05-19T04:01:36;99333.47;;;29.09;18.61
38530;BME280;24301;54.332;48.386;2023-05-19T04:04:02;99329.13;;;28.97;18.81
38530;BME280;24301;54.332;48.386;2023-05-19T04:06:28;99321.03;;;29.28;18.70
38530;BME280;24301;54.332;48.386;2023-05-19T04:08:55;99317.38;;;29.60;18.37
38530;BME280;24301;54.332;48.386;2023-05-19T04:11:21;99321.38;;;30.07;17.63
38530;BME280;24301;54.332;48.386;2023-05-19T04:13:47;99325.72;;;29.88;17.24
38530;BME280;24301;54.332;48.386;2023-05-19T04:16:13;99328.44;;;29.26;17.37
38530;BME280;24301;54.332;48.386;2023-05-19T04:18:40;99321.97;;;29.17;17.79
38530;BME280;24301;54.332;48.386;2023-05-19T04:21:07;99318.22;;;29.30;17.87
38530;BME280;24301;54.332;48.386;2023-05-19T04:23:33;99323.19;;;29.56;17.56
38530;BME280;24301;54.332;48.386;2023-05-19T04:25:59;99323.53;;;30.13;17.72
38530;BME280;24301;54.332;48.386;2023-05-19T04:28:26;99324.84;;;30.58;17.77
38530;BME280;24301;54.332;48.386;2023-05-19T04:30:54;99327.03;;;31.32;17.23
38530;BME280;24301;54.332;48.386;2023-05-19T04:33:23;99336.41;;;32.13;16.47
38530;BME280;24301;54.332;48.386;2023-05-19T04:35:49;99342.88;;;32.48;16.34
38530;BME280;24301;54.332;48.386;2023-05-19T04:38:16;99347.19;;;32.95;15.26
38530;BME280;24301;54.332;48.386;2023-05-19T04:40:46;99339.91;;;32.78;15.57
38530;BME280;24301;54.332;48.386;2023-05-19T04:43:15;99339.84;;;32.33;15.83
38530;BME280;24301;54.332;48.386;2023-05-19T04:45:43;99340.53;;;32.35;15.27
38530;BME280;24301;54.332;48.386;2023-05-19T04:48:10;99337.75;;;32.63;15.06
38530;BME280;24301;54.332;48.386;2023-05-19T04:50:37;99344.66;;;32.76;14.58
38530;BME280;24301;54.332;48.386;2023-05-19T04:53:08;99337.06;;;32.43;14.72
38530;BME280;24301;54.332;48.386;2023-05-19T04:55:34;99340.97;;;32.85;14.48
38530;BME280;24301;54.332;48.386;2023-05-19T04:58:01;99347.78;;;33.25;15.17
38530;BME280;24301;54.332;48.386;2023-05-19T05:00:27;99351.47;;;33.77;14.63
38530;BME280;24301;54.332;48.386;2023-05-19T05:02:58;99350.41;;;33.17;14.68
38530;BME280;24301;54.332;48.386;2023-05-19T05:05:26;99343.66;;;32.77;14.68
38530;BME280;24301;54.332;48.386;2023-05-19T05:07:52;99345.38;;;33.49;14.62
38530;BME280;24301;54.332;48.386;2023-05-19T05:10:20;99337.78;;;33.69;13.69
38530;BME280;24301;54.332;48.386;2023-05-19T05:12:46;99335.59;;;34.16;13.66
38530;BME280;24301;54.332;48.386;2023-05-19T05:15:13;99348.25;;;34.25;13.57
38530;BME280;24301;54.332;48.386;2023-05-19T05:17:40;99340.28;;;33.54;13.31
38530;BME280;24301;54.332;48.386;2023-05-19T05:20:07;99342.88;;;33.99;13.36
38530;BME280;24301;54.332;48.386;2023-05-19T05:22:34;99337.22;;;34.51;12.96
38530;BME280;24301;54.332;48.386;2023-05-19T05:25:01;99339.09;;;35.09;12.10
38530;BME280;24301;54.332;48.386;2023-05-19T05:27:30;99345.75;;;34.81;12.05
38530;BME280;24301;54.332;48.386;2023-05-19T05:29:56;99334.16;;;33.95;13.04
38530;BME280;24301;54.332;48.386;2023-05-19T05:32:22;99336.47;;;33.73;12.53
38530;BME280;24301;54.332;48.386;2023-05-19T05:34:48;99343.59;;;34.09;13.01
38530;BME280;24301;54.332;48.386;2023-05-19T05:37:15;99347.03;;;34.11;12.85
38530;BME280;24301;54.332;48.386;2023-05-19T05:39:41;99337.56;;;34.57;12.82
38530;BME280;24301;54.332;48.386;2023-05-19T05:42:07;99347.78;;;34.55;13.28
38530;BME280;24301;54.332;48.386;2023-05-19T05:44:37;99349.94;;;34.43;13.20
38530;BME280;24301;54.332;48.386;2023-05-19T05:47:06;99361.94;;;34.50;13.43
38530;BME280;24301;54.332;48.386;2023-05-19T05:49:32;99361.19;;;34.48;13.26
38530;BME280;24301;54.332;48.386;2023-05-19T05:52:02;99357.44;;;34.41;13.50
38530;BME280;24301;54.332;48.386;2023-05-19T05:54:31;99367.72;;;34.72;13.62
38530;BME280;24301;54.332;48.386;2023-05-19T05:56:58;99356.31;;;34.93;13.47
38530;BME280;24301;54.332;48.386;2023-05-19T05:59:24;99364.31;;;35.28;13.15
38530;BME280;24301;54.332;48.386;2023-05-19T06:01:50;99368.75;;;35.20;13.27
38530;BME280;24301;54.332;48.386;2023-05-19T06:04:17;99364.84;;;35.23;13.38
38530;BME280;24301;54.332;48.386;2023-05-19T06:06:45;99352.56;;;35.84;12.96
38530;BME280;24301;54.332;48.386;2023-05-19T06:09:15;99370.03;;;36.14;12.98
38530;BME280;24301;54.332;48.386;2023-05-19T06:11:42;99374.09;;;36.73;12.64
38530;BME280;24301;54.332;48.386;2023-05-19T06:14:08;99369.03;;;36.07;12.74
38530;BME280;24301;54.332;48.386;2023-05-19T06:17:00;99365.25;;;35.76;13.30
38530;BME280;24301;54.332;48.386;2023-05-19T06:19:28;99353.94;;;34.98;13.53
38530;BME280;24301;54.332;48.386;2023-05-19T06:21:54;99367.75;;;34.55;14.16
38530;BME280;24301;54.332;48.386;2023-05-19T06:24:21;99360.13;;;33.20;14.84
38530;BME280;24301;54.332;48.386;2023-05-19T06:26:47;99358.41;;;32.92;15.00
38530;BME280;24301;54.332;48.386;2023-05-19T06:29:15;99363.28;;;33.33;14.57
38530;BME280;24301;54.332;48.386;2023-05-19T06:31:41;99361.75;;;33.57;14.40
38530;BME280;24301;54.332;48.386;2023-05-19T06:34:10;99363.38;;;34.11;14.23
38530;BME280;24301;54.332;48.386;2023-05-19T06:36:39;99371.66;;;33.66;14.12
38530;BME280;24301;54.332;48.386;2023-05-19T06:39:06;99373.13;;;33.52;14.52
38530;BME280;24301;54.332;48.386;2023-05-19T06:41:32;99371.66;;;34.52;14.50
38530;BME280;24301;54.332;48.386;2023-05-19T06:43:59;99366.72;;;34.64;14.10
38530;BME280;24301;54.332;48.386;2023-05-19T06:46:25;99373.88;;;34.49;13.75
38530;BME280;24301;54.332;48.386;2023-05-19T06:48:51;99365.53;;;34.75;14.07
38530;BME280;24301;54.332;48.386;2023-05-19T06:51:20;99371.16;;;34.74;14.05
38530;BME280;24301;54.332;48.386;2023-05-19T06:53:50;99374.38;;;35.27;13.87
38530;BME280;24301;54.332;48.386;2023-05-19T06:56:16;99377.66;;;35.14;14.20
38530;BME280;24301;54.332;48.386;2023-05-19T06:58:44;99385.03;;;35.70;13.89
38530;BME280;24301;54.332;48.386;2023-05-19T07:01:11;99376.84;;;35.78;14.12
38530;BME280;24301;54.332;48.386;2023-05-19T07:03:43;99388.53;;;35.31;14.60
38530;BME280;24301;54.332;48.386;2023-05-19T07:06:10;99373.88;;;35.23;14.76
38530;BME280;24301;54.332;48.386;2023-05-19T07:08:36;99380.69;;;34.86;15.15
38530;BME280;24301;54.332;48.386;2023-05-19T07:11:04;99396.91;;;35.21;15.35
38530;BME280;24301;54.332;48.386;2023-05-19T07:13:30;99385.94;;;36.10;14.56
38530;BME280;24301;54.332;48.386;2023-05-19T07:15:57;99396.66;;;36.20;14.46
38530;BME280;24301;54.332;48.386;2023-05-19T07:18:26;99387.19;;;35.91;14.42
38530;BME280;24301;54.332;48.386;2023-05-19T07:20:52;99397.06;;;35.52;14.87
38530;BME280;24301;54.332;48.386;2023-05-19T07:23:19;99392.22;;;35.71;14.88
38530;BME280;24301;54.332;48.386;2023-05-19T07:25:46;99399.91;;;36.16;14.85
38530;BME280;24301;54.332;48.386;2023-05-19T07:28:12;99392.28;;;35.55;15.04
38530;BME280;24301;54.332;48.386;2023-05-19T07:30:37;99389.13;;;35.74;14.65
38530;BME280;24301;54.332;48.386;2023-05-19T07:33:03;99385.16;;;35.12;15.19
38530;BME280;24301;54.332;48.386;2023-05-19T07:35:29;99381.38;;;34.72;15.60
38530;BME280;24301;54.332;48.386;2023-05-19T07:37:55;99384.13;;;35.13;15.53
38530;BME280;24301;54.332;48.386;2023-05-19T07:40:21;99375.66;;;34.32;15.79
38530;BME280;24301;54.332;48.386;2023-05-19T07:42:48;99376.69;;;33.88;15.79
38530;BME280;24301;54.332;48.386;2023-05-19T07:45:14;99366.97;;;33.85;16.28
38530;BME280;24301;54.332;48.386;2023-05-19T07:47:40;99370.41;;;33.87;16.20
38530;BME280;24301;54.332;48.386;2023-05-19T07:50:06;99384.88;;;33.88;16.40
38530;BME280;24301;54.332;48.386;2023-05-19T07:52:32;99375.41;;;33.39;16.75
38530;BME280;24301;54.332;48.386;2023-05-19T07:54:58;99385.09;;;33.15;16.96
38530;BME280;24301;54.332;48.386;2023-05-19T07:57:24;99369.03;;;32.67;17.74
38530;BME280;24301;54.332;48.386;2023-05-19T07:59:50;99368.34;;;32.65;17.41
38530;BME280;24301;54.332;48.386;2023-05-19T08:02:16;99375.22;;;31.58;19.16
38530;BME280;24301;54.332;48.386;2023-05-19T08:04:42;99368.63;;;30.53;19.92
38530;BME280;24301;54.332;48.386;2023-05-19T08:07:08;99388.97;;;29.46;21.14
38530;BME280;24301;54.332;48.386;2023-05-19T08:09:34;99387.22;;;28.15;22.54
38530;BME280;24301;54.332;48.386;2023-05-19T08:12:00;99385.38;;;26.88;23.84
38530;BME280;24301;54.332;48.386;2023-05-19T08:14:26;99371.25;;;25.61;25.24
38530;BME280;24301;54.332;48.386;2023-05-19T08:16:52;99375.53;;;24.72;26.09
38530;BME280;24301;54.332;48.386;2023-05-19T08:19:18;99370.41;;;23.70;27.44
38530;BME280;24301;54.332;48.386;2023-05-19T08:21:44;99369.66;;;23.08;28.16
38530;BME280;24301;54.332;48.386;2023-05-19T08:24:10;99376.66;;;22.80;28.55
38530;BME280;24301;54.332;48.386;2023-05-19T08:26:36;99370.13;;;22.38;28.89
38530;BME280;24301;54.332;48.386;2023-05-19T08:29:02;99371.78;;;21.59;29.96
38530;BME280;24301;54.332;48.386;2023-05-19T08:31:27;99378.09;;;20.89;31.88
38530;BME280;24301;54.332;48.386;2023-05-19T08:33:54;99374.06;;;20.62;32.54
38530;BME280;24301;54.332;48.386;2023-05-19T08:36:20;99369.78;;;20.58;32.37
38530;BME280;24301;54.332;48.386;2023-05-19T08:38:46;99369.34;;;20.67;32.49
38530;BME280;24301;54.332;48.386;2023-05-19T08:41:12;99363.25;;;20.83;32.43
38530;BME280;24301;54.332;48.386;2023-05-19T08:43:38;99362.63;;;20.95;32.41
38530;BME280;24301;54.332;48.386;2023-05-19T08:46:04;99357.28;;;21.13;32.58
38530;BME280;24301;54.332;48.386;2023-05-19T08:48:34;99359.31;;;21.08;32.80
38530;BME280;24301;54.332;48.386;2023-05-19T08:51:23;99364.00;;;21.38;32.84
38530;BME280;24301;54.332;48.386;2023-05-19T08:53:55;99365.91;;;21.36;33.01
38530;BME280;24301;54.332;48.386;2023-05-19T08:56:24;99359.34;;;21.42;33.01
38530;BME280;24301;54.332;48.386;2023-05-19T08:58:51;99357.97;;;21.50;33.08
38530;BME280;24301;54.332;48.386;2023-05-19T09:01:18;99362.53;;;21.66;33.23
38530;BME280;24301;54.332;48.386;2023-05-19T09:03:47;99366.94;;;21.67;33.45
38530;BME280;24301;54.332;48.386;2023-05-19T09:06:14;99372.41;;;21.48;33.86
38530;BME280;24301;54.332;48.386;2023-05-19T09:08:41;99366.97;;;21.32;34.14
38530;BME280;24301;54.332;48.386;2023-05-19T09:11:08;99370.31;;;21.19;34.09
38530;BME280;24301;54.332;48.386;2023-05-19T09:13:34;99366.47;;;21.07;34.11
38530;BME280;24301;54.332;48.386;2023-05-19T09:16:01;99359.06;;;21.13;34.32
38530;BME280;24301;54.332;48.386;2023-05-19T09:18:28;99365.28;;;21.13;34.33
38530;BME280;24301;54.332;48.386;2023-05-19T09:20:58;99363.25;;;21.01;34.76
38530;BME280;24301;54.332;48.386;2023-05-19T09:23:30;99359.00;;;20.96;33.77
38530;BME280;24301;54.332;48.386;2023-05-19T09:26:03;99361.34;;;21.03;33.55
38530;BME280;24301;54.332;48.386;2023-05-19T09:28:33;99361.69;;;21.14;33.53
38530;BME280;24301;54.332;48.386;2023-05-19T09:31:02;99350.44;;;21.07;33.46
38530;BME280;24301;54.332;48.386;2023-05-19T09:33:29;99362.69;;;20.76;33.19
38530;BME280;24301;54.332;48.386;2023-05-19T09:35:57;99361.41;;;20.66;33.43
38530;BME280;24301;54.332;48.386;2023-05-19T09:38:26;99352.53;;;20.65;32.94
38530;BME280;24301;54.332;48.386;2023-05-19T09:40:55;99357.91;;;20.83;32.52
38530;BME280;24301;54.332;48.386;2023-05-19T09:43:22;99353.50;;;21.00;33.21
38530;BME280;24301;54.332;48.386;2023-05-19T09:45:56;99358.13;;;21.14;32.35
38530;BME280;24301;54.332;48.386;2023-05-19T09:48:25;99356.50;;;21.11;32.26
38530;BME280;24301;54.332;48.386;2023-05-19T09:50:52;99348.56;;;20.92;32.44
38530;BME280;24301;54.332;48.386;2023-05-19T09:53:20;99353.91;;;20.92;32.17
38530;BME280;24301;54.332;48.386;2023-05-19T09:55:47;99356.41;;;20.95;32.07
38530;BME280;24301;54.332;48.386;2023-05-19T09:58:17;99352.66;;;20.99;31.76
38530;BME280;24301;54.332;48.386;2023-05-19T10:00:46;99347.84;;;21.06;31.66
38530;BME280;24301;54.332;48.386;2023-05-19T10:03:13;99346.25;;;21.19;31.11
38530;BME280;24301;54.332;48.386;2023-05-19T10:05:41;99338.13;;;21.38;30.25
38530;BME280;24301;54.332;48.386;2023-05-19T10:08:07;99334.66;;;21.36;30.36
38530;BME280;24301;54.332;48.386;2023-05-19T10:10:36;99339.69;;;21.43;30.29
38530;BME280;24301;54.332;48.386;2023-05-19T10:13:03;99340.72;;;21.40;31.04
38530;BME280;24301;54.332;48.386;2023-05-19T10:15:29;99346.25;;;21.37;30.33
38530;BME280;24301;54.332;48.386;2023-05-19T10:17:55;99346.38;;;21.34;30.45
38530;BME280;24301;54.332;48.386;2023-05-19T10:20:21;99344.19;;;21.42;30.80
38530;BME280;24301;54.332;48.386;2023-05-19T10:22:47;99340.66;;;21.58;30.63
38530;BME280;24301;54.332;48.386;2023-05-19T10:25:14;99345.38;;;21.70;30.15
38530;BME280;24301;54.332;48.386;2023-05-19T10:27:55;99335.41;;;21.56;29.40
38530;BME280;24301;54.332;48.386;2023-05-19T10:30:28;99327.66;;;21.34;29.86
38530;BME280;24301;54.332;48.386;2023-05-19T10:32:59;99330.69;;;21.28;30.29
38530;BME280;24301;54.332;48.386;2023-05-19T10:38:26;99333.22;;;21.47;30.71
38530;BME280;24301;54.332;48.386;2023-05-19T10:43:53;99339.88;;;21.56;29.75
38530;BME280;24301;54.332;48.386;2023-05-19T10:46:25;99333.25;;;21.63;30.08
38530;BME280;24301;54.332;48.386;2023-05-19T10:48:52;99345.38;;;21.70;30.56
38530;BME280;24301;54.332;48.386;2023-05-19T10:51:18;99344.78;;;21.47;31.00
38530;BME280;24301;54.332;48.386;2023-05-19T10:53:44;99322.78;;;21.42;30.93
38530;BME280;24301;54.332;48.386;2023-05-19T10:56:33;99334.22;;;21.62;30.85
38530;BME280;24301;54.332;48.386;2023-05-19T10:59:02;99332.63;;;21.58;28.37
38530;BME280;24301;54.332;48.386;2023-05-19T11:01:30;99332.31;;;21.64;30.84
38530;BME280;24301;54.332;48.386;2023-05-19T11:04:04;99330.19;;;21.71;28.62
38530;BME280;24301;54.332;48.386;2023-05-19T11:06:32;99331.41;;;21.47;29.06
38530;BME280;24301;54.332;48.386;2023-05-19T11:14:20;99333.19;;;21.31;28.83
38530;BME280;24301;54.332;48.386;2023-05-19T11:16:49;99326.13;;;21.30;29.00
38530;BME280;24301;54.332;48.386;2023-05-19T11:19:35;99322.28;;;21.51;28.46
38530;BME280;24301;54.332;48.386;2023-05-19T11:22:08;99325.91;;;21.50;28.27
38530;BME280;24301;54.332;48.386;2023-05-19T11:24:42;99324.06;;;21.35;28.65
38530;BME280;24301;54.332;48.386;2023-05-19T11:27:38;99319.03;;;21.29;27.70
38530;BME280;24301;54.332;48.386;2023-05-19T11:32:36;99322.94;;;21.23;27.74
38530;BME280;24301;54.332;48.386;2023-05-19T11:35:04;99317.16;;;21.31;26.79
38530;BME280;24301;54.332;48.386;2023-05-19T11:37:32;99322.81;;;21.24;25.65
38530;BME280;24301;54.332;48.386;2023-05-19T11:40:03;99331.50;;;21.12;26.38
38530;BME280;24301;54.332;48.386;2023-05-19T11:42:32;99334.66;;;21.03;26.48
38530;BME280;24301;54.332;48.386;2023-05-19T11:45:03;99329.84;;;20.92;25.96
38530;BME280;24301;54.332;48.386;2023-05-19T11:47:33;99323.34;;;20.98;26.08
38530;BME280;24301;54.332;48.386;2023-05-19T11:50:00;99322.00;;;21.06;25.71
38530;BME280;24301;54.332;48.386;2023-05-19T11:52:26;99323.34;;;20.80;26.00
38530;BME280;24301;54.332;48.386;2023-05-19T11:54:53;99319.59;;;20.84;26.24
38530;BME280;24301;54.332;48.386;2023-05-19T11:57:19;99326.66;;;20.85;26.21
38530;BME280;24301;54.332;48.386;2023-05-19T11:59:45;99316.41;;;20.76;26.20
38530;BME280;24301;54.332;48.386;2023-05-19T12:02:25;99334.06;;;20.43;26.01
38530;BME280;24301;54.332;48.386;2023-05-19T12:04:53;99317.03;;;20.46;26.24
38530;BME280;24301;54.332;48.386;2023-05-19T12:07:22;99326.94;;;20.61;26.13
38530;BME280;24301;54.332;48.386;2023-05-19T12:09:51;99322.84;;;20.54;25.93
38530;BME280;24301;54.332;48.386;2023-05-19T12:12:20;99321.97;;;20.36;26.39
38530;BME280;24301;54.332;48.386;2023-05-19T12:14:48;99319.47;;;20.50;26.13
38530;BME280;24301;54.332;48.386;2023-05-19T12:17:19;99318.28;;;20.38;26.06
38530;BME280;24301;54.332;48.386;2023-05-19T12:19:46;99309.78;;;20.30;26.54
38530;BME280;24301;54.332;48.386;2023-05-19T12:22:14;99314.28;;;20.30;26.18
38530;BME280;24301;54.332;48.386;2023-05-19T12:24:41;99318.31;;;20.19;26.30
38530;BME280;24301;54.332;48.386;2023-05-19T12:27:11;99306.94;;;20.16;26.78
38530;BME280;24301;54.332;48.386;2023-05-19T12:29:38;99318.31;;;20.19;26.63
38530;BME280;24301;54.332;48.386;2023-05-19T12:32:07;99309.16;;;20.25;26.82
38530;BME280;24301;54.332;48.386;2023-05-19T12:34:37;99315.91;;;20.32;26.94
38530;BME280;24301;54.332;48.386;2023-05-19T12:37:04;99315.91;;;20.32;26.59
38530;BME280;24301;54.332;48.386;2023-05-19T12:39:31;99310.03;;;20.06;26.95
38530;BME280;24301;54.332;48.386;2023-05-19T12:42:01;99321.97;;;19.99;27.10
38530;BME280;24301;54.332;48.386;2023-05-19T12:44:28;99310.34;;;20.00;27.68
38530;BME280;24301;54.332;48.386;2023-05-19T12:46:56;99325.16;;;20.25;27.66
38530;BME280;24301;54.332;48.386;2023-05-19T12:49:24;99331.16;;;20.48;27.54
38530;BME280;24301;54.332;48.386;2023-05-19T12:51:51;99335.25;;;20.55;27.42
38530;BME280;24301;54.332;48.386;2023-05-19T12:54:20;99333.75;;;20.49;27.63
38530;BME280;24301;54.332;48.386;2023-05-19T12:57:04;99329.75;;;20.41;27.78
38530;BME280;24301;54.332;48.386;2023-05-19T12:59:32;99333.94;;;20.27;28.19
38530;BME280;24301;54.332;48.386;2023-05-19T13:02:00;99340.53;;;20.20;28.49
38530;BME280;24301;54.332;48.386;2023-05-19T13:04:27;99335.22;;;20.01;29.10
38530;BME280;24301;54.332;48.386;2023-05-19T13:06:53;99330.75;;;19.63;29.87
38530;BME280;24301;54.332;48.386;2023-05-19T13:09:19;99345.06;;;19.60;30.34
38530;BME280;24301;54.332;48.386;2023-05-19T13:11:46;99342.19;;;19.65;30.75
38530;BME280;24301;54.332;48.386;2023-05-19T13:14:17;99342.69;;;19.73;31.13
38530;BME280;24301;54.332;48.386;2023-05-19T13:16:46;99350.03;;;19.87;31.19
38530;BME280;24301;54.332;48.386;2023-05-19T13:19:18;99349.06;;;19.71;32.47
38530;BME280;24301;54.332;48.386;2023-05-19T13:21:45;99348.66;;;19.59;32.92